createdAt,value
2023-02-08T00:02:08.656Z,29.58
2023-02-08T00:04:38.476Z,33.97
2023-02-08T00:07:11.210Z,30.00
2023-02-08T00:09:41.109Z,38.20
2023-02-08T00:12:14.220Z,39.38
2023-02-08T00:14:44.159Z,39.05
2023-02-08T00:17:16.497Z,38.95
2023-02-08T00:19:46.298Z,43.20
2023-02-08T00:22:19.019Z,34.00
2023-02-08T00:24:48.737Z,35.63
2023-02-08T00:27:19.620Z,38.00
2023-02-08T00:29:49.326Z,44.17
2023-02-08T00:32:19.003Z,45.05
2023-02-08T00:34:51.834Z,38.85
2023-02-08T00:37:21.554Z,37.88
2023-02-08T00:39:51.332Z,41.95
2023-02-08T00:42:21.011Z,50.05
2023-02-08T00:44:50.831Z,44.58
2023-02-08T00:47:20.544Z,40.95
2023-02-08T00:49:50.349Z,39.25
2023-02-08T00:52:22.155Z,39.42
2023-02-08T00:54:54.790Z,43.53
2023-02-08T00:57:24.672Z,46.90
2023-02-08T00:59:54.395Z,42.95
2023-02-08T01:02:24.229Z,47.22
2023-02-08T01:04:53.861Z,44.42
2023-02-08T01:07:23.570Z,39.22
2023-02-08T01:09:59.514Z,36.28
2023-02-08T01:12:29.638Z,38.15
2023-02-08T01:14:59.349Z,42.60
2023-02-08T01:17:29.179Z,38.53
2023-02-08T01:19:59.009Z,42.47
2023-02-08T01:22:30.822Z,35.45
2023-02-08T01:25:02.799Z,40.53
2023-02-08T01:27:32.470Z,40.28
2023-02-08T01:30:02.244Z,41.55
2023-02-08T01:32:34.859Z,41.28
2023-02-08T01:35:04.594Z,37.20
2023-02-08T01:37:34.266Z,38.22
2023-02-08T01:40:04.183Z,36.38
2023-02-08T01:42:34.012Z,37.08
2023-02-08T01:45:22.696Z,48.20
2023-02-08T01:48:00.919Z,40.03
2023-02-08T01:50:35.193Z,37.47
2023-02-08T01:53:05.001Z,38.75
2023-02-08T01:55:37.258Z,38.58
2023-02-08T01:58:08.663Z,35.95
2023-02-08T02:00:38.676Z,38.50
2023-02-08T02:03:08.634Z,36.33
2023-02-08T02:05:47.612Z,43.53
2023-02-08T02:08:17.500Z,32.33
2023-02-08T02:10:47.219Z,33.28
2023-02-08T02:13:23.893Z,36.97
2023-02-08T02:15:53.717Z,32.85
2023-02-08T02:18:31.356Z,30.75
2023-02-08T02:21:26.544Z,31.35
2023-02-08T02:24:10.940Z,29.55
2023-02-08T02:27:01.609Z,28.60
2023-02-08T02:29:36.616Z,27.98
2023-02-08T02:32:06.326Z,23.73
2023-02-08T02:34:41.965Z,25.58
2023-02-08T02:37:26.940Z,23.25
2023-02-08T02:40:30.043Z,23.13
2023-02-08T02:43:30.029Z,23.25
2023-02-08T02:46:07.694Z,19.05
2023-02-08T02:49:00.646Z,18.73
2023-02-08T02:51:40.920Z,16.85
2023-02-08T02:54:28.768Z,16.63
2023-02-08T02:57:01.201Z,18.50
2023-02-08T02:59:31.040Z,21.05
2023-02-08T03:02:03.785Z,14.60
2023-02-08T03:04:42.436Z,15.45
2023-02-08T03:07:21.449Z,13.40
2023-02-08T03:10:17.860Z,12.73
2023-02-08T03:13:21.335Z,11.82
2023-02-08T03:16:07.520Z,10.93
2023-02-08T03:18:55.491Z,14.27
2023-02-08T03:21:31.354Z,12.57
2023-02-08T03:24:22.262Z,11.57
2023-02-08T03:27:06.983Z,11.95
2023-02-08T03:29:44.930Z,11.40
2023-02-08T03:32:22.709Z,13.07
2023-02-08T03:35:18.390Z,11.20
2023-02-08T03:37:49.360Z,9.90
2023-02-08T03:40:34.072Z,10.52
2023-02-08T03:45:38.778Z,9.68
2023-02-08T03:48:11.236Z,9.20
2023-02-08T03:50:41.779Z,9.35
2023-02-08T03:53:11.690Z,9.63
2023-02-08T03:55:44.607Z,8.95
2023-02-08T03:59:02.183Z,10.88
2023-02-08T04:01:38.575Z,9.93
2023-02-08T04:04:08.361Z,9.18
2023-02-08T04:06:38.334Z,8.40
2023-02-08T04:09:11.693Z,9.38
2023-02-08T04:11:43.885Z,10.10
2023-02-08T04:14:13.587Z,12.30
2023-02-08T04:16:43.551Z,7.90
2023-02-08T04:19:13.345Z,10.68
2023-02-08T04:21:43.390Z,10.55
2023-02-08T04:24:13.188Z,10.98
2023-02-08T04:26:42.970Z,9.60
2023-02-08T04:29:12.721Z,8.43
2023-02-08T04:31:43.110Z,10.52
2023-02-08T04:34:12.958Z,9.73
2023-02-08T04:36:43.003Z,10.57
2023-02-08T04:39:12.786Z,10.43
2023-02-08T04:41:42.844Z,9.95
2023-02-08T04:44:12.641Z,8.95
2023-02-08T04:46:42.733Z,10.77
2023-02-08T04:49:12.538Z,8.35
2023-02-08T04:51:45.106Z,7.07
2023-02-08T04:54:14.902Z,9.48
2023-02-08T04:56:47.874Z,6.85
2023-02-08T04:59:17.690Z,8.52
2023-02-08T05:01:50.865Z,7.85
2023-02-08T05:04:20.699Z,8.80
2023-02-08T05:06:50.513Z,9.90
2023-02-08T05:09:37.863Z,10.85
2023-02-08T05:12:10.896Z,9.32
2023-02-08T05:14:40.569Z,7.50
2023-02-08T05:17:10.445Z,10.95
2023-02-08T05:19:40.336Z,9.15
2023-02-08T05:22:10.092Z,8.45
2023-02-08T05:24:42.916Z,9.93
2023-02-08T05:27:12.796Z,7.80
2023-02-08T05:29:42.574Z,8.73
2023-02-08T05:32:12.432Z,9.10
2023-02-08T05:34:42.238Z,7.72
2023-02-08T05:37:11.932Z,8.68
2023-02-08T05:39:41.884Z,7.68
2023-02-08T05:42:12.410Z,7.53
2023-02-08T05:44:42.056Z,6.53
2023-02-08T05:47:12.060Z,8.73
2023-02-08T05:49:41.727Z,9.70
2023-02-08T05:52:14.672Z,10.55
2023-02-08T05:54:44.417Z,5.57
2023-02-08T05:57:17.330Z,7.43
2023-02-08T05:59:47.125Z,7.40
2023-02-08T06:02:16.787Z,10.02
2023-02-08T06:04:47.643Z,7.60
2023-02-08T06:07:17.444Z,7.57
2023-02-08T06:09:48.515Z,7.40
2023-02-08T06:12:18.565Z,9.65
2023-02-08T06:14:48.890Z,10.50
2023-02-08T06:17:18.804Z,8.05
2023-02-08T06:19:48.558Z,8.90
2023-02-08T06:22:18.445Z,8.63
2023-02-08T06:24:49.529Z,7.05
2023-02-08T06:27:19.140Z,9.05
2023-02-08T06:29:48.772Z,8.68
2023-02-08T06:32:21.499Z,7.60
2023-02-08T06:34:52.858Z,8.13
2023-02-08T06:37:22.729Z,7.18
2023-02-08T06:39:52.432Z,9.48
2023-02-08T06:42:22.342Z,10.13
2023-02-08T06:44:55.335Z,8.27
2023-02-08T06:47:26.097Z,10.57
2023-02-08T06:49:55.853Z,8.23
2023-02-08T06:52:25.692Z,9.93
2023-02-08T06:54:55.385Z,11.30
2023-02-08T06:57:25.122Z,11.70
2023-02-08T06:59:55.007Z,12.15
2023-02-08T07:02:24.813Z,12.20
2023-02-08T07:04:54.554Z,10.65
2023-02-08T07:07:24.271Z,10.50
2023-02-08T07:09:54.043Z,12.63
2023-02-08T07:12:23.001Z,13.38
2023-02-08T07:14:52.866Z,13.15
2023-02-08T07:17:22.809Z,12.50
2023-02-08T07:19:52.667Z,9.98
2023-02-08T07:22:22.981Z,13.90
2023-02-08T07:24:52.730Z,14.45
2023-02-08T07:27:24.006Z,13.98
2023-02-08T07:29:55.551Z,16.30
2023-02-08T07:32:25.392Z,14.85
2023-02-08T07:34:56.050Z,16.75
2023-02-08T07:37:26.318Z,13.57
2023-02-08T07:39:56.106Z,15.43
2023-02-08T07:42:28.543Z,15.95
2023-02-08T07:44:58.416Z,15.95
2023-02-08T07:47:28.195Z,16.65
2023-02-08T07:49:57.988Z,14.27
2023-02-08T07:52:27.648Z,16.85
2023-02-08T07:55:00.118Z,15.15
2023-02-08T07:57:30.015Z,15.95
2023-02-08T07:59:59.828Z,18.70
2023-02-08T08:02:32.425Z,18.63
2023-02-08T08:05:02.129Z,19.88
2023-02-08T08:07:31.834Z,20.00
2023-02-08T08:10:01.742Z,16.30
2023-02-08T08:12:31.413Z,18.10
2023-02-08T08:15:03.911Z,13.77
2023-02-08T08:17:33.643Z,17.35
2023-02-08T08:20:03.445Z,17.98
2023-02-08T08:22:33.330Z,17.20
2023-02-08T08:25:03.161Z,19.00
2023-02-08T08:27:32.937Z,19.10
2023-02-08T08:30:02.984Z,20.05
2023-02-08T08:32:32.800Z,18.50
2023-02-08T08:35:02.544Z,19.08
2023-02-08T08:37:32.411Z,18.73
2023-02-08T08:40:02.142Z,19.90
2023-02-08T08:42:31.746Z,21.95
2023-02-08T08:45:01.439Z,20.00
2023-02-08T08:47:31.141Z,19.25
2023-02-08T08:50:00.851Z,21.50
2023-02-08T08:52:30.828Z,17.85
2023-02-08T08:55:00.604Z,20.75
2023-02-08T08:57:30.329Z,18.95
2023-02-08T09:00:00.153Z,18.92
2023-02-08T09:02:29.879Z,22.92
2023-02-08T09:05:01.792Z,19.27
2023-02-08T09:07:31.710Z,20.70
2023-02-08T09:10:01.316Z,21.55
2023-02-08T09:12:31.260Z,20.17
2023-02-08T09:15:01.054Z,20.88
2023-02-08T09:17:30.824Z,18.38
2023-02-08T09:20:06.485Z,20.55
2023-02-08T09:22:36.288Z,23.02
2023-02-08T09:25:06.368Z,21.95
2023-02-08T09:27:37.232Z,22.50
2023-02-08T09:30:07.140Z,21.25
2023-02-08T09:32:37.015Z,21.88
2023-02-08T09:35:06.864Z,22.92
2023-02-08T09:37:36.700Z,21.67
2023-02-08T09:40:06.907Z,20.30
2023-02-08T09:42:36.560Z,21.88
2023-02-08T09:45:32.461Z,19.08
2023-02-08T09:48:23.475Z,21.13
2023-02-08T09:50:59.585Z,17.65
2023-02-08T09:53:42.086Z,21.58
2023-02-08T09:56:13.823Z,20.95
2023-02-08T09:58:47.512Z,21.98
2023-02-08T10:01:37.285Z,20.20
2023-02-08T10:04:36.490Z,17.40
2023-02-08T10:07:06.265Z,22.80
2023-02-08T10:09:38.183Z,20.83
2023-02-08T10:12:10.455Z,21.98
2023-02-08T10:15:06.524Z,19.13
2023-02-08T10:17:46.282Z,18.98
2023-02-08T10:20:42.646Z,18.05
2023-02-08T10:23:25.315Z,21.00
2023-02-08T10:26:13.368Z,20.45
2023-02-08T10:29:05.349Z,21.15
2023-02-08T10:31:53.120Z,18.88
2023-02-08T10:34:31.373Z,20.50
2023-02-08T10:37:02.951Z,19.05
2023-02-08T10:39:35.699Z,17.70
2023-02-08T10:42:05.590Z,22.00
2023-02-08T10:45:24.505Z,18.55
2023-02-08T10:48:19.334Z,21.27
2023-02-08T10:50:49.892Z,23.98
2023-02-08T10:53:21.477Z,18.27
2023-02-08T10:55:52.052Z,17.45
2023-02-08T10:58:25.365Z,21.70
2023-02-08T11:00:58.134Z,21.00
2023-02-08T11:03:29.671Z,19.98
2023-02-08T11:05:59.537Z,19.92
2023-02-08T11:08:30.512Z,17.08
2023-02-08T11:11:08.840Z,21.63
2023-02-08T11:13:43.142Z,17.17
2023-02-08T11:18:52.114Z,23.58
2023-02-08T11:21:26.129Z,19.95
2023-02-08T11:23:57.097Z,19.55
2023-02-08T11:26:45.189Z,18.45
2023-02-08T11:29:19.013Z,19.15
2023-02-08T11:32:00.914Z,18.20
2023-02-08T11:34:35.352Z,19.52
2023-02-08T11:37:06.608Z,18.67
2023-02-08T11:39:53.139Z,19.65
2023-02-08T11:42:33.503Z,18.65
2023-02-08T11:45:03.168Z,18.35
2023-02-08T11:47:34.741Z,18.40
2023-02-08T11:50:09.564Z,20.05
2023-02-08T11:52:43.990Z,18.80
2023-02-08T11:55:19.415Z,17.55
2023-02-08T11:58:06.030Z,18.52
2023-02-08T12:00:37.427Z,17.33
2023-02-08T12:03:30.787Z,16.48
2023-02-08T12:06:00.512Z,21.10
2023-02-08T12:09:05.909Z,19.35
2023-02-08T12:11:41.503Z,16.98
2023-02-08T12:14:32.257Z,19.52
2023-02-08T12:17:18.893Z,16.98
2023-02-08T12:20:03.442Z,19.35
2023-02-08T12:25:05.103Z,16.92
2023-02-08T12:27:51.687Z,16.50
2023-02-08T12:30:36.165Z,16.88
2023-02-08T12:33:25.308Z,17.58
2023-02-08T12:36:19.213Z,20.50
2023-02-08T12:39:19.729Z,17.40
2023-02-08T12:41:59.026Z,17.85
2023-02-08T12:44:56.206Z,19.88
2023-02-08T12:47:54.830Z,17.20
2023-02-08T12:50:49.716Z,17.45
2023-02-08T12:53:33.009Z,16.75
2023-02-08T12:56:04.731Z,16.42
2023-02-08T12:59:01.827Z,21.23
2023-02-08T13:01:45.801Z,18.08
2023-02-08T13:04:34.711Z,18.02
2023-02-08T13:07:20.729Z,14.55
2023-02-08T13:10:07.853Z,19.17
2023-02-08T13:13:23.514Z,16.20
2023-02-08T13:19:03.884Z,16.45
2023-02-08T13:21:39.454Z,16.73
2023-02-08T13:24:14.192Z,16.42
2023-02-08T13:26:43.817Z,17.02
2023-02-08T13:29:28.160Z,13.40
2023-02-08T13:32:01.152Z,14.38
2023-02-08T13:34:43.273Z,17.40
2023-02-08T13:37:31.509Z,15.60
2023-02-08T13:40:29.489Z,15.18
2023-02-08T13:43:06.521Z,15.48
2023-02-08T13:45:38.295Z,14.90
2023-02-08T13:48:13.145Z,14.88
2023-02-08T13:50:53.420Z,16.95
2023-02-08T13:53:42.256Z,15.73
2023-02-08T13:56:12.936Z,14.40
2023-02-08T13:58:48.428Z,15.48
2023-02-08T14:01:26.071Z,16.42
2023-02-08T14:04:13.923Z,16.25
2023-02-08T14:06:49.408Z,14.63
2023-02-08T14:10:04.013Z,17.00
2023-02-08T14:12:42.822Z,14.32
2023-02-08T14:15:18.540Z,17.20
2023-02-08T14:17:50.441Z,14.13
2023-02-08T14:20:30.845Z,16.88
2023-02-08T14:23:23.168Z,15.02
2023-02-08T14:25:53.691Z,14.07
2023-02-08T14:28:41.728Z,14.85
2023-02-08T14:31:12.411Z,16.33
2023-02-08T14:33:46.974Z,15.55
2023-02-08T14:36:37.673Z,16.83
2023-02-08T14:39:34.961Z,13.43
2023-02-08T14:42:10.248Z,16.45
2023-02-08T14:44:43.783Z,15.82
2023-02-08T14:47:15.594Z,14.75
2023-02-08T14:49:45.692Z,13.18
2023-02-08T14:52:25.908Z,15.00
2023-02-08T14:55:31.951Z,12.07
2023-02-08T14:58:01.909Z,16.05
2023-02-08T15:00:39.251Z,15.60
2023-02-08T15:03:14.212Z,14.27
2023-02-08T15:05:48.685Z,14.98
2023-02-08T15:08:22.429Z,18.35
2023-02-08T15:10:52.085Z,15.73
2023-02-08T15:13:28.484Z,15.40
2023-02-08T15:15:59.129Z,18.35
2023-02-08T15:18:34.573Z,14.68
2023-02-08T15:21:07.112Z,15.05
2023-02-08T15:23:39.732Z,15.50
2023-02-08T15:26:24.885Z,15.65
2023-02-08T15:28:54.591Z,12.55
2023-02-08T15:31:32.274Z,14.80
2023-02-08T15:34:05.404Z,14.52
2023-02-08T15:36:39.299Z,14.20
2023-02-08T15:39:40.042Z,11.63
2023-02-08T15:42:21.514Z,21.13
2023-02-08T15:44:51.365Z,14.85
2023-02-08T15:47:33.126Z,14.57
2023-02-08T15:50:03.060Z,16.25
2023-02-08T15:52:34.118Z,13.48
2023-02-08T15:55:04.017Z,14.02
2023-02-08T15:57:38.302Z,14.27
2023-02-08T16:02:38.244Z,15.77
2023-02-08T16:05:23.464Z,14.90
2023-02-08T16:07:56.029Z,12.85
2023-02-08T16:10:42.623Z,13.15
2023-02-08T16:13:42.276Z,17.05
2023-02-08T16:16:40.890Z,13.23
2023-02-08T16:19:29.702Z,13.23
2023-02-08T16:22:20.313Z,14.57
2023-02-08T16:24:52.322Z,15.65
2023-02-08T16:27:32.480Z,14.77
2023-02-08T16:30:02.327Z,15.38
2023-02-08T16:32:37.723Z,13.25
2023-02-08T16:35:22.947Z,17.70
2023-02-08T16:38:03.870Z,13.50
2023-02-08T16:40:45.584Z,13.32
2023-02-08T16:43:25.977Z,16.02
2023-02-08T16:46:17.167Z,16.02
2023-02-08T16:48:59.246Z,14.40
2023-02-08T16:51:33.885Z,14.75
2023-02-08T16:54:08.452Z,11.20
2023-02-08T16:56:38.994Z,15.23
2023-02-08T16:59:08.709Z,16.10
2023-02-08T17:01:39.711Z,14.55
2023-02-08T17:04:09.392Z,15.23
2023-02-08T17:06:39.736Z,16.98
2023-02-08T17:09:10.587Z,14.40
2023-02-08T17:11:40.401Z,13.70
2023-02-08T17:14:11.590Z,15.20
2023-02-08T17:16:45.432Z,13.55
2023-02-08T17:19:21.500Z,14.65
2023-02-08T17:21:51.212Z,17.73
2023-02-08T17:24:22.080Z,14.48
2023-02-08T17:26:51.780Z,15.77
2023-02-08T17:29:21.544Z,17.98
2023-02-08T17:31:51.209Z,14.18
2023-02-08T17:34:20.857Z,16.77
2023-02-08T17:36:50.511Z,17.42
2023-02-08T17:39:20.307Z,16.67
2023-02-08T17:41:50.048Z,16.65
2023-02-08T17:44:20.688Z,13.00
2023-02-08T17:46:50.353Z,17.17
2023-02-08T17:49:20.039Z,17.10
2023-02-08T17:51:49.791Z,16.60
2023-02-08T17:54:21.038Z,17.52
2023-02-08T17:56:52.258Z,13.45
2023-02-08T17:59:22.053Z,14.77
2023-02-08T18:01:54.774Z,15.00
2023-02-08T18:04:24.502Z,15.73
2023-02-08T18:06:54.074Z,15.02
2023-02-08T18:09:23.649Z,14.95
2023-02-08T18:11:53.357Z,15.40
2023-02-08T18:14:23.060Z,15.32
2023-02-08T18:16:52.653Z,17.17
2023-02-08T18:19:22.536Z,16.05
2023-02-08T18:21:52.615Z,15.30
2023-02-08T18:24:22.227Z,13.57
2023-02-08T18:26:51.965Z,13.10
2023-02-08T18:29:21.724Z,14.45
2023-02-08T18:31:51.962Z,13.43
2023-02-08T18:34:21.844Z,14.98
2023-02-08T18:36:51.600Z,14.95
2023-02-08T18:39:24.631Z,15.07
2023-02-08T18:41:56.970Z,16.95
2023-02-08T18:44:26.787Z,13.98
2023-02-08T18:46:56.432Z,13.30
2023-02-08T18:49:26.767Z,15.30
2023-02-08T18:51:56.450Z,14.48
2023-02-08T18:54:28.722Z,16.10
2023-02-08T18:56:58.595Z,14.82
2023-02-08T18:59:28.302Z,15.80
2023-02-08T19:01:57.958Z,16.02
2023-02-08T19:04:27.696Z,18.67
2023-02-08T19:06:57.427Z,16.70
2023-02-08T19:09:27.138Z,14.27
2023-02-08T19:11:57.374Z,16.92
2023-02-08T19:14:26.986Z,15.95
2023-02-08T19:16:56.606Z,15.27
2023-02-08T19:19:26.306Z,14.85
2023-02-08T19:21:55.870Z,13.00
2023-02-08T19:24:28.405Z,16.90
2023-02-08T19:26:57.936Z,16.10
2023-02-08T19:29:27.552Z,16.20
2023-02-08T19:31:58.385Z,15.05
2023-02-08T19:34:28.260Z,15.20
2023-02-08T19:36:57.940Z,14.40
2023-02-08T19:39:28.675Z,14.68
2023-02-08T19:42:00.092Z,15.65
2023-02-08T19:44:30.754Z,14.23
2023-02-08T19:47:00.890Z,15.50
2023-02-08T19:49:30.653Z,17.95
2023-02-08T19:52:00.339Z,15.15
2023-02-08T19:54:29.892Z,15.90
2023-02-08T19:56:59.616Z,18.05
2023-02-08T19:59:38.107Z,13.93
2023-02-08T20:02:08.250Z,14.48
2023-02-08T20:04:37.962Z,15.88
2023-02-08T20:07:09.928Z,13.98
2023-02-08T20:09:39.594Z,11.95
2023-02-08T20:12:09.493Z,12.35
2023-02-08T20:14:39.225Z,12.40
2023-02-08T20:17:08.933Z,11.85
2023-02-08T20:19:41.311Z,13.13
2023-02-08T20:22:10.962Z,10.57
2023-02-08T20:24:40.660Z,13.88
2023-02-08T20:27:10.216Z,11.60
2023-02-08T20:29:40.092Z,10.23
2023-02-08T20:32:10.841Z,10.98
2023-02-08T20:34:47.324Z,10.82
2023-02-08T20:37:24.517Z,11.43
2023-02-08T20:39:54.159Z,11.30
2023-02-08T20:42:26.512Z,10.65
2023-02-08T20:44:56.267Z,8.48
2023-02-08T20:47:30.035Z,10.10
2023-02-08T20:50:10.214Z,11.55
2023-02-08T20:52:43.030Z,16.48
2023-02-08T20:55:12.959Z,15.07
2023-02-08T20:57:45.702Z,11.35
2023-02-08T21:00:16.143Z,13.48
2023-02-08T21:02:45.918Z,10.32
2023-02-08T21:05:21.646Z,9.80
2023-02-08T21:07:51.272Z,11.40
2023-02-08T21:10:20.973Z,11.75
2023-02-08T21:12:50.625Z,10.85
2023-02-08T21:15:23.094Z,10.88
2023-02-08T21:17:52.946Z,13.48
2023-02-08T21:20:22.663Z,8.52
2023-02-08T21:22:52.662Z,12.85
2023-02-08T21:25:22.365Z,12.13
2023-02-08T21:27:55.043Z,15.82
2023-02-08T21:30:25.049Z,10.50
2023-02-08T21:32:54.673Z,11.23
2023-02-08T21:35:24.326Z,10.43
2023-02-08T21:37:53.908Z,10.80
2023-02-08T21:40:26.232Z,10.30
2023-02-08T21:42:55.933Z,9.93
2023-02-08T21:45:28.338Z,12.52
2023-02-08T21:47:58.058Z,10.75
2023-02-08T21:50:54.003Z,12.40
2023-02-08T21:53:55.399Z,9.77
2023-02-08T21:56:25.073Z,12.13
2023-02-08T21:58:57.441Z,10.73
2023-02-08T22:01:27.670Z,11.70
2023-02-08T22:03:57.303Z,10.23
2023-02-08T22:06:27.104Z,11.35
2023-02-08T22:08:56.855Z,13.70
2023-02-08T22:11:29.456Z,11.38
2023-02-08T22:13:59.275Z,11.45
2023-02-08T22:16:31.145Z,11.25
2023-02-08T22:19:00.852Z,10.15
2023-02-08T22:21:30.420Z,12.23
2023-02-08T22:24:00.087Z,11.63
2023-02-08T22:26:32.552Z,11.32
2023-02-08T22:29:03.028Z,11.32
2023-02-08T22:31:32.957Z,10.93
2023-02-08T22:34:02.923Z,11.38
2023-02-08T22:36:32.791Z,13.18
2023-02-08T22:39:02.537Z,17.70
2023-02-08T22:41:32.389Z,13.18
2023-02-08T22:44:02.358Z,14.30
2023-02-08T22:46:35.131Z,11.85
2023-02-08T22:49:10.325Z,10.82
2023-02-08T22:51:40.129Z,10.18
2023-02-08T22:54:09.932Z,13.05
2023-02-08T22:56:42.731Z,13.30
2023-02-08T22:59:12.486Z,10.82
2023-02-08T23:01:42.120Z,12.57
2023-02-08T23:04:11.857Z,14.95
2023-02-08T23:06:41.553Z,11.70
2023-02-08T23:09:12.872Z,11.70
2023-02-08T23:11:42.767Z,10.52
2023-02-08T23:14:12.372Z,11.38
2023-02-08T23:16:42.090Z,13.57
2023-02-08T23:19:18.134Z,12.27
2023-02-08T23:21:47.883Z,11.52
2023-02-08T23:24:17.563Z,13.10
2023-02-08T23:26:50.338Z,11.88
2023-02-08T23:29:19.939Z,14.40
2023-02-08T23:31:49.750Z,12.55
2023-02-08T23:34:22.838Z,11.90
2023-02-08T23:36:52.439Z,14.02
2023-02-08T23:39:22.354Z,14.18
2023-02-08T23:41:52.018Z,13.52
2023-02-08T23:44:21.596Z,14.25
2023-02-08T23:46:51.273Z,14.43
2023-02-08T23:49:21.036Z,14.95
2023-02-08T23:51:50.748Z,12.63
2023-02-08T23:54:20.434Z,11.82
2023-02-08T23:56:50.153Z,14.68
2023-02-08T23:59:19.866Z,13.77
